createdAt,value
2023-04-24T00:01:37.850Z,99859.19
2023-04-24T00:04:05.207Z,99858.94
2023-04-24T00:06:35.141Z,99852.66
2023-04-24T00:09:04.281Z,99856.13
2023-04-24T00:11:31.417Z,99851.84
2023-04-24T00:13:58.390Z,99857.91
2023-04-24T00:16:25.430Z,99840.81
2023-04-24T00:18:53.628Z,99840.47
2023-04-24T00:21:21.386Z,99845.22
2023-04-24T00:23:48.494Z,99841.81
2023-04-24T00:26:16.701Z,99840.34
2023-04-24T00:28:43.814Z,99845.81
2023-04-24T00:31:10.840Z,99845.81
2023-04-24T00:33:37.774Z,99839.88
2023-04-24T00:36:05.015Z,99850.34
2023-04-24T00:38:31.942Z,99849.69
2023-04-24T00:40:58.884Z,99835.75
2023-04-24T00:43:27.157Z,99851.31
2023-04-24T00:45:54.895Z,99839.72
2023-04-24T00:48:22.339Z,99843.44
2023-04-24T00:50:49.226Z,99833.28
2023-04-24T00:53:16.366Z,99828.94
2023-04-24T00:55:43.766Z,99827.25
2023-04-24T00:58:10.892Z,99836.59
2023-04-24T01:00:39.903Z,99833.38
2023-04-24T01:03:08.141Z,99837.78
2023-04-24T01:05:35.665Z,99831.09
2023-04-24T01:08:03.714Z,99832.78
2023-04-24T01:10:33.897Z,99829.31
2023-04-24T01:13:00.985Z,99833.25
2023-04-24T01:15:27.910Z,99830.44
2023-04-24T01:17:57.000Z,99829.41
2023-04-24T01:20:26.906Z,99827.22
2023-04-24T01:22:57.388Z,99827.56
2023-04-24T01:25:26.824Z,99815.81
2023-04-24T01:27:53.793Z,99816.38
2023-04-24T01:30:20.855Z,99814.78
2023-04-24T01:32:49.078Z,99818.72
2023-04-24T01:35:16.414Z,99806.63
2023-04-24T01:37:43.350Z,99810.19
2023-04-24T01:40:12.549Z,99804.72
2023-04-24T01:42:42.106Z,99800.06
2023-04-24T01:45:13.819Z,99798.31
2023-04-24T01:47:41.146Z,99808.13
2023-04-24T01:50:09.821Z,99796.19
2023-04-24T01:52:37.053Z,99788.09
2023-04-24T01:55:06.004Z,99794.44
2023-04-24T01:57:34.772Z,99788.09
2023-04-24T02:00:01.762Z,99791.78
2023-04-24T02:02:29.758Z,99788.09
2023-04-24T02:04:57.301Z,99796.66
2023-04-24T02:07:24.347Z,99788.91
2023-04-24T02:09:51.250Z,99782.44
2023-04-24T02:12:21.257Z,99795.41
2023-04-24T02:14:49.597Z,99790.09
2023-04-24T02:17:17.099Z,99791.84
2023-04-24T02:19:44.175Z,99799.00
2023-04-24T02:22:11.572Z,99790.16
2023-04-24T02:24:42.491Z,99788.94
2023-04-24T02:27:09.405Z,99797.97
2023-04-24T02:29:36.848Z,99793.38
2023-04-24T02:32:05.311Z,99805.84
2023-04-24T02:34:32.230Z,99792.94
2023-04-24T02:36:59.145Z,99795.47
2023-04-24T02:39:26.094Z,99791.44
2023-04-24T02:41:52.969Z,99797.31
2023-04-24T02:44:19.859Z,99795.47
2023-04-24T02:46:47.040Z,99792.94
2023-04-24T02:49:16.444Z,99784.50
2023-04-24T02:51:43.397Z,99798.34
2023-04-24T02:54:13.467Z,99790.63
2023-04-24T02:56:40.772Z,99790.94
2023-04-24T02:59:07.742Z,99781.38
2023-04-24T03:01:34.785Z,99783.47
2023-04-24T03:04:02.178Z,99789.81
2023-04-24T03:06:32.228Z,99787.06
2023-04-24T03:08:59.141Z,99792.72
2023-04-24T03:11:31.935Z,99787.97
2023-04-24T03:13:59.074Z,99792.78
2023-04-24T03:16:26.342Z,99791.19
2023-04-24T03:18:53.246Z,99790.88
2023-04-24T03:21:20.366Z,99794.09
2023-04-24T03:23:59.213Z,99791.44
2023-04-24T03:26:26.903Z,99791.91
2023-04-24T03:28:53.816Z,99789.09
2023-04-24T03:31:22.150Z,99791.44
2023-04-24T03:33:49.120Z,99790.94
2023-04-24T03:36:16.217Z,99792.88
2023-04-24T03:38:43.142Z,99783.78
2023-04-24T03:41:11.460Z,99775.25
2023-04-24T03:43:38.751Z,99785.88
2023-04-24T03:46:06.611Z,99782.66
2023-04-24T03:48:33.514Z,99789.56
2023-04-24T03:51:00.446Z,99783.94
2023-04-24T03:53:27.573Z,99790.94
2023-04-24T03:55:54.664Z,99788.22
2023-04-24T03:58:22.910Z,99798.09
2023-04-24T04:00:50.667Z,99792.47
2023-04-24T04:03:17.811Z,99802.72
2023-04-24T04:05:45.488Z,99802.06
2023-04-24T04:08:12.378Z,99799.88
2023-04-24T04:10:39.280Z,99797.53
2023-04-24T04:13:07.412Z,99803.66
2023-04-24T04:15:35.736Z,99802.63
2023-04-24T04:18:03.037Z,99794.97
2023-04-24T04:20:30.196Z,99805.94
2023-04-24T04:22:57.091Z,99798.53
2023-04-24T04:25:24.005Z,99801.91
2023-04-24T04:27:52.032Z,99802.06
2023-04-24T04:30:19.441Z,99803.09
2023-04-24T04:32:48.076Z,99800.53
2023-04-24T04:35:15.129Z,99803.19
2023-04-24T04:37:42.024Z,99807.56
2023-04-24T04:40:12.843Z,99808.81
2023-04-24T04:42:41.265Z,99811.13
2023-04-24T04:45:12.425Z,99806.16
2023-04-24T04:47:40.535Z,99809.28
2023-04-24T04:50:10.445Z,99808.34
2023-04-24T04:52:37.495Z,99810.91
2023-04-24T04:55:06.073Z,99808.97
2023-04-24T04:57:33.047Z,99809.63
2023-04-24T04:59:59.923Z,99817.72
2023-04-24T05:02:26.905Z,99816.13
2023-04-24T05:04:54.038Z,99824.88
2023-04-24T05:07:22.358Z,99816.78
2023-04-24T05:09:49.422Z,99815.63
2023-04-24T05:12:16.525Z,99814.34
2023-04-24T05:14:43.504Z,99812.50
2023-04-24T05:17:10.895Z,99818.72
2023-04-24T05:19:39.367Z,99812.34
2023-04-24T05:22:07.729Z,99814.06
2023-04-24T05:24:36.467Z,99819.22
2023-04-24T05:27:05.423Z,99816.81
2023-04-24T05:29:32.673Z,99811.63
2023-04-24T05:31:59.752Z,99809.69
2023-04-24T05:34:26.802Z,99816.63
2023-04-24T05:36:54.172Z,99824.81
2023-04-24T05:39:21.435Z,99824.16
2023-04-24T05:41:49.596Z,99821.44
2023-04-24T05:44:16.475Z,99825.03
2023-04-24T05:46:43.495Z,99839.94
2023-04-24T05:49:10.458Z,99833.44
2023-04-24T05:51:37.339Z,99830.22
2023-04-24T05:54:04.516Z,99827.81
2023-04-24T05:56:31.914Z,99833.44
2023-04-24T05:59:00.175Z,99818.31
2023-04-24T06:01:27.813Z,99833.75
2023-04-24T06:03:55.253Z,99828.06
2023-04-24T06:06:22.525Z,99836.63
2023-04-24T06:08:49.503Z,99837.84
2023-04-24T06:11:16.849Z,99833.44
2023-04-24T06:13:43.838Z,99835.47
2023-04-24T06:16:12.210Z,99841.78
2023-04-24T06:18:39.167Z,99852.25
2023-04-24T06:21:06.345Z,99845.44
2023-04-24T06:23:33.901Z,99846.19
2023-04-24T06:26:01.040Z,99857.63
2023-04-24T06:28:28.137Z,99849.66
2023-04-24T06:30:55.092Z,99850.06
2023-04-24T06:33:24.057Z,99854.66
2023-04-24T06:35:51.064Z,99850.09
2023-04-24T06:38:18.171Z,99865.00
2023-04-24T06:40:46.389Z,99855.50
2023-04-24T06:43:13.369Z,99865.84
2023-04-24T06:45:40.855Z,99863.94
2023-04-24T06:48:08.297Z,99854.84
2023-04-24T06:50:37.034Z,99856.16
2023-04-24T06:53:03.947Z,99863.56
2023-04-24T06:55:31.736Z,99868.94
2023-04-24T06:57:58.750Z,99867.69
2023-04-24T07:00:25.748Z,99875.72
2023-04-24T07:02:53.059Z,99875.72
2023-04-24T07:05:20.921Z,99868.41
2023-04-24T07:07:50.701Z,99870.09
2023-04-24T07:10:21.080Z,99872.97
2023-04-24T07:12:48.399Z,99870.31
2023-04-24T07:15:15.558Z,99863.88
2023-04-24T07:17:45.395Z,99869.75
2023-04-24T07:20:13.252Z,99864.53
2023-04-24T07:22:40.508Z,99867.91
2023-04-24T07:25:09.958Z,99860.97
2023-04-24T07:27:37.501Z,99863.47
2023-04-24T07:30:05.746Z,99863.75
2023-04-24T07:32:32.818Z,99870.16
2023-04-24T07:34:59.756Z,99866.28
2023-04-24T07:37:27.182Z,99880.56
2023-04-24T07:39:54.117Z,99870.78
2023-04-24T07:42:22.387Z,99880.38
2023-04-24T07:44:49.391Z,99886.66
2023-04-24T07:47:16.971Z,99889.97
2023-04-24T07:49:44.112Z,99876.25
2023-04-24T07:52:12.284Z,99888.22
2023-04-24T07:54:39.256Z,99899.50
2023-04-24T07:57:07.759Z,99894.81
2023-04-24T07:59:36.215Z,99890.44
2023-04-24T08:02:03.387Z,99905.59
2023-04-24T08:04:30.619Z,99896.91
2023-04-24T08:06:57.650Z,99899.50
2023-04-24T08:09:26.506Z,99896.25
2023-04-24T08:11:54.840Z,99900.78
2023-04-24T08:14:21.826Z,99906.13
2023-04-24T08:16:50.041Z,99915.16
2023-04-24T08:19:17.386Z,99915.88
2023-04-24T08:21:46.626Z,99921.00
2023-04-24T08:24:14.731Z,99927.72
2023-04-24T08:26:42.096Z,99922.81
2023-04-24T08:29:09.346Z,99923.88
2023-04-24T08:31:36.538Z,99913.94
2023-04-24T08:34:04.922Z,99918.31
2023-04-24T08:36:43.518Z,99921.09
2023-04-24T08:39:13.482Z,99920.94
2023-04-24T08:41:44.147Z,99923.38
2023-04-24T08:44:11.778Z,99913.38
2023-04-24T08:46:43.477Z,99926.91
2023-04-24T08:49:13.462Z,99916.16
2023-04-24T08:51:41.044Z,99908.44
2023-04-24T08:54:08.385Z,99917.84
2023-04-24T08:56:40.114Z,99919.13
2023-04-24T08:59:07.468Z,99923.75
2023-04-24T09:01:36.078Z,99922.75
2023-04-24T09:04:05.217Z,99920.03
2023-04-24T09:06:35.210Z,99927.03
2023-04-24T09:09:04.283Z,99925.91
2023-04-24T09:11:33.522Z,99924.09
2023-04-24T09:14:01.906Z,99927.47
2023-04-24T09:16:29.131Z,99923.25
2023-04-24T09:18:56.873Z,99915.38
2023-04-24T09:21:24.723Z,99926.97
2023-04-24T09:24:01.896Z,99926.88
2023-04-24T09:26:32.910Z,99928.34
2023-04-24T09:29:00.770Z,99928.00
2023-04-24T09:31:30.515Z,99934.63
2023-04-24T09:34:02.010Z,99933.13
2023-04-24T09:36:33.816Z,99935.72
2023-04-24T09:39:05.507Z,99931.97
2023-04-24T09:41:34.264Z,99932.66
2023-04-24T09:44:13.096Z,99939.50
2023-04-24T09:46:40.532Z,99933.88
2023-04-24T09:49:17.718Z,99937.00
2023-04-24T09:51:45.063Z,99937.50
2023-04-24T09:54:19.093Z,99941.09
2023-04-24T09:56:47.483Z,99935.94
2023-04-24T09:59:15.062Z,99946.13
2023-04-24T10:01:43.684Z,99950.75
2023-04-24T10:04:19.270Z,99940.09
2023-04-24T10:06:47.888Z,99947.56
2023-04-24T10:09:16.641Z,99938.84
2023-04-24T10:11:46.096Z,99942.56
2023-04-24T10:14:15.916Z,99944.75
2023-04-24T10:16:44.950Z,99945.97
2023-04-24T10:19:14.061Z,99949.91
2023-04-24T10:21:47.922Z,99949.53
2023-04-24T10:24:18.852Z,99952.66
2023-04-24T10:26:46.947Z,99947.16
2023-04-24T10:29:16.638Z,99963.88
2023-04-24T10:31:48.240Z,99957.41
2023-04-24T10:34:21.747Z,99962.34
2023-04-24T10:36:55.176Z,99951.69
2023-04-24T10:39:27.171Z,99951.81
2023-04-24T10:41:59.808Z,99962.13
2023-04-24T10:44:37.100Z,99975.44
2023-04-24T10:47:04.413Z,99971.63
2023-04-24T10:49:32.999Z,99970.38
2023-04-24T10:52:03.403Z,99967.47
2023-04-24T10:54:37.829Z,99980.16
2023-04-24T10:57:30.904Z,99975.75
2023-04-24T11:00:20.629Z,99969.53
2023-04-24T11:02:51.197Z,99972.59
2023-04-24T11:05:20.111Z,99968.75
2023-04-24T11:08:12.953Z,99955.25
2023-04-24T11:10:46.111Z,99956.19
2023-04-24T11:13:17.578Z,99959.09
2023-04-24T11:15:44.801Z,99959.69
2023-04-24T11:18:16.351Z,99964.47
2023-04-24T11:20:52.040Z,99969.88
2023-04-24T11:23:21.042Z,99965.41
2023-04-24T11:26:13.639Z,99959.28
2023-04-24T11:28:47.184Z,99956.88
2023-04-24T11:31:40.589Z,99959.19
2023-04-24T11:34:15.148Z,99958.13
2023-04-24T11:36:44.813Z,99966.44
2023-04-24T11:39:12.544Z,99969.50
2023-04-24T11:41:41.061Z,99966.25
2023-04-24T11:44:12.467Z,99975.75
2023-04-24T11:46:41.219Z,99975.97
2023-04-24T11:49:08.665Z,99983.91
2023-04-24T11:51:44.506Z,99979.75
2023-04-24T11:54:18.294Z,99994.19
2023-04-24T11:56:47.780Z,99993.53
2023-04-24T11:59:15.501Z,99994.84
2023-04-24T12:01:46.612Z,99995.41
2023-04-24T12:04:14.698Z,99995.31
2023-04-24T12:06:59.898Z,99999.84
2023-04-24T12:09:26.908Z,100002.88
2023-04-24T12:12:00.384Z,100002.06
2023-04-24T12:14:27.376Z,100006.94
2023-04-24T12:16:54.481Z,100008.69
2023-04-24T12:19:23.295Z,100011.13
2023-04-24T12:22:03.921Z,100002.94
2023-04-24T12:24:31.753Z,100014.88
2023-04-24T12:27:02.338Z,100012.00
2023-04-24T12:29:29.274Z,100002.44
2023-04-24T12:31:56.399Z,100012.53
2023-04-24T12:34:26.698Z,100016.91
2023-04-24T12:36:53.865Z,100021.53
2023-04-24T12:39:24.461Z,100020.97
2023-04-24T12:41:57.779Z,100015.25
2023-04-24T12:44:38.714Z,100035.09
2023-04-24T12:47:14.690Z,100023.66
2023-04-24T12:49:41.940Z,100034.41
2023-04-24T12:52:09.248Z,100029.78
2023-04-24T12:54:36.332Z,100040.34
2023-04-24T12:57:03.545Z,100055.78
2023-04-24T12:59:31.975Z,100055.47
2023-04-24T13:01:59.121Z,100051.84
2023-04-24T13:04:26.133Z,100062.34
2023-04-24T13:06:53.127Z,100069.53
2023-04-24T13:09:20.319Z,100072.97
2023-04-24T13:11:47.357Z,100087.50
2023-04-24T13:14:14.316Z,100092.13
2023-04-24T13:16:42.733Z,100107.34
2023-04-24T13:19:09.625Z,100117.81
2023-04-24T13:21:36.549Z,100113.66
2023-04-24T13:24:05.788Z,100126.53
2023-04-24T13:26:32.744Z,100130.09
2023-04-24T13:28:59.800Z,100131.22
2023-04-24T13:31:27.153Z,100139.28
2023-04-24T13:33:55.517Z,100141.91
2023-04-24T13:36:22.713Z,100151.13
2023-04-24T13:38:49.799Z,100156.06
2023-04-24T13:41:16.737Z,100161.59
2023-04-24T13:43:44.513Z,100173.22
2023-04-24T13:46:11.723Z,100177.56
2023-04-24T13:48:39.147Z,100181.94
2023-04-24T13:51:10.855Z,100192.63
2023-04-24T13:53:39.341Z,100190.13
2023-04-24T13:56:06.889Z,100203.63
2023-04-24T13:58:33.830Z,100201.16
2023-04-24T14:01:00.900Z,100203.63
2023-04-24T14:03:28.025Z,100216.88
2023-04-24T14:05:55.362Z,100217.09
2023-04-24T14:08:23.724Z,100233.44
2023-04-24T14:10:51.774Z,100221.63
2023-04-24T14:13:19.491Z,100235.56
2023-04-24T14:15:47.128Z,100229.66
2023-04-24T14:18:14.296Z,100239.69
2023-04-24T14:20:41.387Z,100242.75
2023-04-24T14:23:08.422Z,100239.31
2023-04-24T14:25:36.750Z,100246.88
2023-04-24T14:28:03.787Z,100249.75
2023-04-24T14:30:31.402Z,100255.25
2023-04-24T14:32:58.351Z,100263.22
2023-04-24T14:35:25.366Z,100262.63
2023-04-24T14:37:52.304Z,100270.19
2023-04-24T14:40:39.446Z,100274.28
2023-04-24T14:43:07.978Z,100275.53
2023-04-24T14:45:35.241Z,100283.69
2023-04-24T14:48:02.281Z,100287.19
2023-04-24T14:50:29.362Z,100285.13
2023-04-24T14:52:58.511Z,100291.00
2023-04-24T14:55:26.840Z,100295.72
2023-04-24T14:57:54.533Z,100301.03
2023-04-24T15:00:24.940Z,100296.09
2023-04-24T15:02:52.508Z,100295.25
2023-04-24T15:05:20.142Z,100300.50
2023-04-24T15:07:47.241Z,100300.06
2023-04-24T15:10:14.462Z,100295.94
2023-04-24T15:12:41.589Z,100307.53
2023-04-24T15:15:10.843Z,100309.78
2023-04-24T15:17:39.337Z,100311.22
2023-04-24T15:20:08.498Z,100314.31
2023-04-24T15:22:36.395Z,100322.09
2023-04-24T15:25:08.205Z,100322.28
2023-04-24T15:27:43.318Z,100316.78
2023-04-24T15:30:12.000Z,100322.28
2023-04-24T15:32:40.791Z,100322.41
2023-04-24T15:35:10.341Z,100325.28
2023-04-24T15:37:38.866Z,100326.31
2023-04-24T15:40:08.310Z,100328.94
2023-04-24T15:42:36.368Z,100332.22
2023-04-24T15:45:04.465Z,100346.91
2023-04-24T15:47:32.847Z,100333.00
2023-04-24T15:50:01.487Z,100339.97
2023-04-24T15:52:28.691Z,100344.44
2023-04-24T15:54:56.204Z,100344.44
2023-04-24T15:57:23.381Z,100348.56
2023-04-24T15:59:50.735Z,100343.69
2023-04-24T16:02:19.491Z,100349.38
2023-04-24T16:04:49.096Z,100347.53
2023-04-24T16:07:18.449Z,100345.50
2023-04-24T16:09:45.661Z,100345.34
2023-04-24T16:12:13.262Z,100350.25
2023-04-24T16:14:40.220Z,100348.72
2023-04-24T16:17:07.500Z,100360.66
2023-04-24T16:19:35.026Z,100357.28
2023-04-24T16:22:03.171Z,100350.63
2023-04-24T16:24:31.576Z,100357.16
2023-04-24T16:26:58.532Z,100354.72
2023-04-24T16:29:26.013Z,100364.72
2023-04-24T16:31:54.112Z,100363.31
2023-04-24T16:34:21.143Z,100367.81
2023-04-24T16:36:48.075Z,100370.47
2023-04-24T16:39:15.405Z,100373.50
2023-04-24T16:41:43.992Z,100375.13
2023-04-24T16:44:11.449Z,100379.63
2023-04-24T16:46:38.477Z,100384.31
2023-04-24T16:49:05.605Z,100383.72
2023-04-24T16:51:33.729Z,100389.44
2023-04-24T16:54:00.787Z,100394.34
2023-04-24T16:56:27.878Z,100392.03
2023-04-24T16:58:56.416Z,100391.03
2023-04-24T17:01:23.937Z,100392.34
2023-04-24T17:03:51.559Z,100390.97
2023-04-24T17:06:18.915Z,100393.25
2023-04-24T17:08:46.303Z,100387.53
2023-04-24T17:11:13.435Z,100392.66
2023-04-24T17:13:40.491Z,100394.09
2023-04-24T17:16:08.865Z,100395.31
2023-04-24T17:18:36.162Z,100409.19
2023-04-24T17:21:03.418Z,100396.16
2023-04-24T17:23:31.210Z,100399.81
2023-04-24T17:25:58.449Z,100399.22
2023-04-24T17:28:28.505Z,100394.91
2023-04-24T17:30:58.322Z,100401.25
2023-04-24T17:33:27.351Z,100400.84
2023-04-24T17:35:54.839Z,100410.47
2023-04-24T17:38:22.194Z,100397.44
2023-04-24T17:40:53.660Z,100399.44
2023-04-24T17:43:23.196Z,100393.78
2023-04-24T17:45:52.796Z,100392.56
2023-04-24T17:48:20.216Z,100389.31
2023-04-24T17:50:49.354Z,100394.59
2023-04-24T17:53:16.485Z,100391.34
2023-04-24T17:55:43.663Z,100392.81
2023-04-24T17:58:11.317Z,100401.75
2023-04-24T18:00:39.341Z,100400.75
2023-04-24T18:03:08.729Z,100411.53
2023-04-24T18:05:39.146Z,100402.78
2023-04-24T18:08:08.097Z,100403.41
2023-04-24T18:10:36.356Z,100405.59
2023-04-24T18:13:04.169Z,100410.50
2023-04-24T18:15:31.838Z,100408.44
2023-04-24T18:17:58.913Z,100416.41
2023-04-24T18:20:26.262Z,100424.94
2023-04-24T18:22:53.691Z,100417.00
2023-04-24T18:25:26.602Z,100411.69
2023-04-24T18:27:55.666Z,100419.66
2023-04-24T18:30:24.404Z,100418.63
2023-04-24T18:32:53.714Z,100411.69
2023-04-24T18:35:21.485Z,100424.34
2023-04-24T18:37:48.706Z,100420.09
2023-04-24T18:40:16.593Z,100428.03
2023-04-24T18:42:45.199Z,100423.13
2023-04-24T18:45:14.881Z,100431.91
2023-04-24T18:47:42.524Z,100435.78
2023-04-24T18:50:10.988Z,100435.78
2023-04-24T18:52:38.126Z,100443.91
2023-04-24T18:55:06.955Z,100434.97
2023-04-24T18:57:34.380Z,100439.66
2023-04-24T19:00:03.992Z,100447.38
2023-04-24T19:02:35.378Z,100441.91
2023-04-24T19:05:03.079Z,100449.22
2023-04-24T19:07:30.610Z,100448.41
2023-04-24T19:09:57.561Z,100455.31
2023-04-24T19:12:24.724Z,100450.03
2023-04-24T19:14:52.005Z,100446.56
2023-04-24T19:17:24.357Z,100454.50
2023-04-24T19:19:52.120Z,100448.00
2023-04-24T19:22:20.298Z,100455.75
2023-04-24T19:24:47.659Z,100459.41
2023-04-24T19:27:14.672Z,100458.59
2023-04-24T19:29:42.049Z,100455.34
2023-04-24T19:32:09.246Z,100456.16
2023-04-24T19:34:39.856Z,100449.22
2023-04-24T19:37:08.007Z,100457.78
2023-04-24T19:39:35.243Z,100453.28
2023-04-24T19:42:05.830Z,100464.09
2023-04-24T19:44:34.414Z,100453.28
2023-04-24T19:47:01.482Z,100458.41
2023-04-24T19:49:28.550Z,100460.00
2023-04-24T19:51:56.774Z,100462.66
2023-04-24T19:54:24.315Z,100466.94
2023-04-24T19:56:51.347Z,100457.38
2023-04-24T19:59:18.271Z,100457.16
2023-04-24T20:01:45.691Z,100466.53
2023-04-24T20:04:13.059Z,100455.31
2023-04-24T20:06:40.188Z,100458.41
2023-04-24T20:09:08.402Z,100459.41
2023-04-24T20:11:35.538Z,100455.13
2023-04-24T20:14:03.658Z,100454.53
2023-04-24T20:16:31.130Z,100454.13
2023-04-24T20:18:58.400Z,100458.63
2023-04-24T20:21:25.344Z,100461.88
2023-04-24T20:23:52.351Z,100461.44
2023-04-24T20:26:21.417Z,100458.19
2023-04-24T20:28:48.616Z,100452.88
2023-04-24T20:31:15.802Z,100463.47
2023-04-24T20:33:42.918Z,100464.06
2023-04-24T20:36:09.839Z,100471.88
2023-04-24T20:38:37.146Z,100476.72
2023-04-24T20:41:04.233Z,100480.19
2023-04-24T20:43:32.507Z,100476.53
2023-04-24T20:46:00.340Z,100480.81
2023-04-24T20:48:27.608Z,100485.09
2023-04-24T20:50:55.838Z,100488.34
2023-04-24T20:53:23.224Z,100491.00
2023-04-24T20:55:50.554Z,100487.94
2023-04-24T20:58:24.028Z,100502.19
2023-04-24T21:00:52.571Z,100497.13
2023-04-24T21:03:19.887Z,100499.75
2023-04-24T21:05:47.232Z,100501.38
2023-04-24T21:08:14.436Z,100496.09
2023-04-24T21:10:41.708Z,100497.91
2023-04-24T21:13:08.953Z,100505.06
2023-04-24T21:15:36.065Z,100509.53
2023-04-24T21:18:04.761Z,100510.94
2023-04-24T21:20:32.259Z,100511.13
2023-04-24T21:22:59.263Z,100512.78
2023-04-24T21:25:26.510Z,100512.56
2023-04-24T21:27:53.701Z,100511.94
2023-04-24T21:30:21.885Z,100511.13
2023-04-24T21:32:48.949Z,100519.06
2023-04-24T21:35:17.478Z,100519.28
2023-04-24T21:37:44.479Z,100513.16
2023-04-24T21:40:11.805Z,100514.00
2023-04-24T21:42:39.185Z,100503.59
2023-04-24T21:45:08.005Z,100512.34
2023-04-24T21:47:35.790Z,100512.75
2023-04-24T21:50:04.281Z,100507.06
2023-04-24T21:52:32.521Z,100510.31
2023-04-24T21:54:59.448Z,100512.31
2023-04-24T21:57:26.476Z,100511.94
2023-04-24T21:59:53.471Z,100507.84
2023-04-24T22:02:21.002Z,100505.59
2023-04-24T22:04:48.919Z,100511.94
2023-04-24T22:07:16.271Z,100513.16
2023-04-24T22:09:44.560Z,100516.81
2023-04-24T22:12:11.550Z,100520.66
2023-04-24T22:14:38.552Z,100520.66
2023-04-24T22:17:05.484Z,100523.31
2023-04-24T22:19:32.442Z,100518.22
2023-04-24T22:21:59.401Z,100517.41
2023-04-24T22:24:26.423Z,100522.50
2023-04-24T22:26:54.630Z,100527.00
2023-04-24T22:29:24.928Z,100524.53
2023-04-24T22:31:52.106Z,100525.75
2023-04-24T22:34:19.619Z,100517.81
2023-04-24T22:36:46.571Z,100526.16
2023-04-24T22:39:15.716Z,100521.25
2023-04-24T22:41:43.259Z,100525.53
2023-04-24T22:44:11.704Z,100524.53
2023-04-24T22:46:38.876Z,100516.59
2023-04-24T22:49:06.056Z,100529.81
2023-04-24T22:51:35.894Z,100520.22
2023-04-24T22:54:04.325Z,100517.78
2023-04-24T22:56:32.000Z,100529.00
2023-04-24T22:58:58.994Z,100526.16
2023-04-24T23:01:27.486Z,100536.75
2023-04-24T23:03:55.103Z,100526.16
2023-04-24T23:06:22.233Z,100533.47
2023-04-24T23:08:49.353Z,100529.81
2023-04-24T23:11:16.607Z,100524.72
2023-04-24T23:13:44.313Z,100531.63
2023-04-24T23:16:11.315Z,100528.16
2023-04-24T23:18:39.608Z,100536.75
2023-04-24T23:21:06.973Z,100540.00
2023-04-24T23:23:34.128Z,100538.97
2023-04-24T23:26:01.358Z,100543.25
2023-04-24T23:28:28.314Z,100543.25
2023-04-24T23:30:55.291Z,100542.03
2023-04-24T23:33:22.256Z,100546.94
2023-04-24T23:35:52.514Z,100543.69
2023-04-24T23:38:19.448Z,100545.91
2023-04-24T23:40:46.535Z,100559.78
2023-04-24T23:43:13.526Z,100563.22
2023-04-24T23:45:40.533Z,100557.13
2023-04-24T23:48:07.596Z,100559.78
2023-04-24T23:50:34.721Z,100555.09
2023-04-24T23:53:03.061Z,100553.06
2023-04-24T23:55:30.130Z,100553.06
2023-04-24T23:57:57.014Z,100556.31
